Time;durP1;ratioP1;P1;durP2;ratioP2;P2;SDS_P1;SDS_P2;PMS_P1;PMS_P2;Temp;Humidity;BMP_temperature;BMP_pressure;BME280_temperature;BME280_humidity;BME280_pressure;Samples;Min_cycle;Max_cycle;Signal;HPM_P1;HPM_P2
2023/08/20 00:01:31;;;;;;;;;;;;;;;15.54;100.00;102011.38;5016631;28;19932;-84
2023/08/20 00:04:16;;;;;;;;;;;;;;;15.52;100.00;102015.06;5013250;28;19925;-84
2023/08/20 00:07:02;;;;;;;;;;;;;;;15.48;100.00;102025.00;5003358;28;19968;-85
2023/08/20 00:09:51;;;;;;;;;;;;;;;15.46;100.00;102024.19;5003544;28;20391;-83
2023/08/20 00:12:37;;;;;;;;;;;;;;;15.46;100.00;102029.53;5003274;28;19924;-83
2023/08/20 00:15:26;;;;;;;;;;;;;;;15.45;100.00;102023.34;5003701;28;19925;-82
2023/08/20 00:18:12;;;;;;;;;;;;;;;15.45;100.00;102033.16;5003217;28;20358;-84
2023/08/20 00:20:58;;;;;;;;;;;;;;;15.41;100.00;102035.09;5009056;28;19921;-83
2023/08/20 00:23:43;;;;;;;;;;;;;;;15.38;100.00;102034.38;5002348;28;20459;-83
2023/08/20 00:26:29;;;;;;;;;;;;;;;15.33;100.00;102038.16;5013637;28;19929;-84
2023/08/20 00:29:15;;;;;;;;;;;;;;;15.32;100.00;102039.06;5002611;28;19951;-84
2023/08/20 00:32:01;;;;;;;;;;;;;;;15.33;100.00;102043.47;5004437;28;19924;-82
2023/08/20 00:34:47;;;;;;;;;;;;;;;15.36;100.00;102041.59;5003380;28;20388;-82
2023/08/20 00:37:32;;;;;;;;;;;;;;;15.33;100.00;102048.81;5003511;28;19994;-83
2023/08/20 00:40:18;;;;;;;;;;;;;;;15.32;100.00;102038.22;5002946;28;19929;-84
2023/08/20 00:43:04;;;;;;;;;;;;;;;15.28;100.00;102041.94;5007747;28;20471;-84
2023/08/20 00:45:49;;;;;;;;;;;;;;;15.23;100.00;102044.84;5007339;28;20564;-84
2023/08/20 00:48:35;;;;;;;;;;;;;;;15.17;100.00;102046.00;5017460;28;19972;-85
2023/08/20 00:51:21;;;;;;;;;;;;;;;15.15;100.00;102047.84;5006412;28;19925;-84
2023/08/20 00:54:06;;;;;;;;;;;;;;;15.14;100.00;102045.25;5006617;28;19917;-85
2023/08/20 00:56:52;;;;;;;;;;;;;;;15.13;100.00;102054.19;4992750;28;20024;-84
2023/08/20 00:59:38;;;;;;;;;;;;;;;15.12;100.00;102047.13;5006408;28;19925;-83
2023/08/20 01:02:24;;;;;;;;;;;;;;;15.11;100.00;102062.28;5006355;28;19932;-83
2023/08/20 01:05:10;;;;;;;;;;;;;;;15.11;100.00;102061.38;5006847;28;20472;-83
2023/08/20 01:07:59;;;;;;;;;;;;;;;15.08;100.00;102051.72;5005874;28;19976;-84
2023/08/20 01:10:49;;;;;;;;;;;;;;;15.07;100.00;102053.53;4993063;28;20350;-83
2023/08/20 01:13:34;;;;;;;;;;;;;;;15.07;100.00;102066.88;5007043;28;19979;-84
2023/08/20 01:16:20;;;;;;;;;;;;;;;15.08;100.00;102073.06;5006821;28;19921;-83
2023/08/20 01:19:06;;;;;;;;;;;;;;;15.07;100.00;102074.00;5006310;28;19929;-83
2023/08/20 01:21:55;;;;;;;;;;;;;;;15.07;100.00;102076.66;5005470;28;20287;-83
2023/08/20 01:24:59;;;;;;;;;;;;;;;15.05;100.00;102084.72;5007073;28;19925;-83
2023/08/20 01:27:48;;;;;;;;;;;;;;;15.03;100.00;102088.44;5006277;28;19951;-83
2023/08/20 01:30:33;;;;;;;;;;;;;;;15.03;100.00;102089.28;5007090;28;20390;-83
2023/08/20 01:33:19;;;;;;;;;;;;;;;15.03;100.00;102091.94;5005576;28;20383;-83
2023/08/20 01:36:09;;;;;;;;;;;;;;;15.03;100.00;102086.59;5007313;28;19926;-83
2023/08/20 01:39:04;;;;;;;;;;;;;;;15.03;100.00;102099.09;5006398;28;19976;-82
2023/08/20 01:41:50;;;;;;;;;;;;;;;15.03;100.00;102093.75;4997872;28;20071;-82
2023/08/20 01:44:36;;;;;;;;;;;;;;;15.02;100.00;102098.22;5007120;28;19964;-83
2023/08/20 01:47:21;;;;;;;;;;;;;;;15.00;100.00;102100.09;5006924;28;20352;-83
2023/08/20 01:50:07;;;;;;;;;;;;;;;14.98;100.00;102093.94;5006301;28;20380;-83
2023/08/20 01:52:53;;;;;;;;;;;;;;;14.97;100.00;102096.69;5001863;28;20375;-83
2023/08/20 01:55:38;;;;;;;;;;;;;;;14.97;100.00;102086.03;5005988;28;20307;-83
2023/08/20 01:58:25;;;;;;;;;;;;;;;14.97;100.00;102092.22;5006516;28;19940;-83
2023/08/20 02:01:10;;;;;;;;;;;;;;;14.97;100.00;102086.88;5005804;28;20519;-83
2023/08/20 02:03:56;;;;;;;;;;;;;;;14.99;100.00;102082.34;5005301;28;20339;-83
2023/08/20 02:06:42;;;;;;;;;;;;;;;15.00;100.00;102080.53;5005152;28;20334;-83
2023/08/20 02:09:28;;;;;;;;;;;;;;;15.00;100.00;102076.09;5005041;28;19932;-83
2023/08/20 02:12:14;;;;;;;;;;;;;;;15.00;100.00;102084.09;5006197;28;20410;-82
2023/08/20 02:14:59;;;;;;;;;;;;;;;15.02;100.00;102068.88;5006085;28;19974;-82
2023/08/20 02:17:45;;;;;;;;;;;;;;;15.03;100.00;102067.94;5006350;28;19929;-82
2023/08/20 02:20:30;;;;;;;;;;;;;;;15.05;100.00;102074.06;5005608;28;19932;-83
2023/08/20 02:23:16;;;;;;;;;;;;;;;15.05;100.00;102074.06;5004435;28;19928;-83
2023/08/20 02:26:02;;;;;;;;;;;;;;;15.05;100.00;102074.06;5003740;28;19998;-83
2023/08/20 02:28:47;;;;;;;;;;;;;;;15.06;100.00;102077.59;5003946;28;19927;-83
2023/08/20 02:31:33;;;;;;;;;;;;;;;15.04;100.00;102077.66;5015609;28;20380;-82
2023/08/20 02:34:21;;;;;;;;;;;;;;;15.02;100.00;102078.66;5005058;28;21792;-81
2023/08/20 02:37:07;;;;;;;;;;;;;;;14.95;100.00;102072.75;5003969;28;20023;-82
2023/08/20 02:39:53;;;;;;;;;;;;;;;14.93;100.00;102075.47;5006185;28;19924;-83
2023/08/20 02:42:38;;;;;;;;;;;;;;;14.92;100.00;102068.41;5005844;28;19929;-82
2023/08/20 02:45:24;;;;;;;;;;;;;;;14.89;100.00;102068.56;5005623;28;19925;-81
2023/08/20 02:48:10;;;;;;;;;;;;;;;14.87;100.00;102064.25;5004674;28;19932;-83
2023/08/20 02:50:56;;;;;;;;;;;;;;;14.86;100.00;102067.84;5004071;28;20352;-82
2023/08/20 02:53:41;;;;;;;;;;;;;;;14.85;100.00;102061.63;4990687;28;19921;-83
2023/08/20 02:56:27;;;;;;;;;;;;;;;14.84;100.00;102059.91;5004354;28;19971;-84
2023/08/20 02:59:13;;;;;;;;;;;;;;;14.83;100.00;102049.31;5003914;28;19925;-83
2023/08/20 03:01:58;;;;;;;;;;;;;;;14.79;100.00;102057.44;5004896;28;19947;-84
2023/08/20 03:04:44;;;;;;;;;;;;;;;14.78;100.00;102058.34;5005158;28;19959;-84
2023/08/20 03:07:29;;;;;;;;;;;;;;;14.76;100.00;102060.22;5005289;28;19948;-83
2023/08/20 03:10:15;;;;;;;;;;;;;;;14.76;100.00;102057.56;5013735;28;19952;-84
2023/08/20 03:13:01;;;;;;;;;;;;;;;14.76;100.00;102059.38;5003748;28;19951;-83
2023/08/20 03:15:47;;;;;;;;;;;;;;;14.75;100.00;102063.84;5003138;28;20463;-83
2023/08/20 03:18:32;;;;;;;;;;;;;;;14.75;100.00;102071.84;5004468;28;19925;-83
2023/08/20 03:21:18;;;;;;;;;;;;;;;14.75;100.00;102070.94;5003522;28;19986;-82
2023/08/20 03:24:04;;;;;;;;;;;;;;;14.74;100.00;102063.91;5005919;28;19928;-83
2023/08/20 03:26:49;;;;;;;;;;;;;;;14.70;100.00;102056.94;5003068;28;20539;-83
2023/08/20 03:29:35;;;;;;;;;;;;;;;14.68;100.00;102065.00;5004636;28;19969;-84
2023/08/20 03:32:21;;;;;;;;;;;;;;;14.67;100.00;102068.59;5004032;28;19936;-84
2023/08/20 03:35:07;;;;;;;;;;;;;;;14.65;100.00;102078.44;5003752;28;20308;-83
2023/08/20 03:37:52;;;;;;;;;;;;;;;14.60;100.00;102077.81;5002595;28;20316;-83
2023/08/20 03:40:38;;;;;;;;;;;;;;;14.57;100.00;102077.91;5004044;28;20283;-84
2023/08/20 03:43:24;;;;;;;;;;;;;;;14.56;100.00;102081.50;5004286;28;19936;-83
2023/08/20 03:46:09;;;;;;;;;;;;;;;14.55;100.00;102080.66;4999640;28;19925;-83
2023/08/20 03:48:55;;;;;;;;;;;;;;;14.56;100.00;102086.84;5004010;28;19979;-81
2023/08/20 03:51:42;;;;;;;;;;;;;;;14.57;100.00;102086.78;4988654;28;20020;-82
2023/08/20 03:54:30;;;;;;;;;;;;;;;14.59;100.00;102097.41;5004879;28;20066;-82
2023/08/20 03:57:16;;;;;;;;;;;;;;;14.58;100.00;102099.19;5002726;28;20355;-83
2023/08/20 04:00:03;;;;;;;;;;;;;;;14.58;100.00;102100.97;5014228;28;19929;-82
2023/08/20 04:02:48;;;;;;;;;;;;;;;14.58;100.00;102092.97;5002481;28;19990;-82
2023/08/20 04:05:37;;;;;;;;;;;;;;;14.59;100.00;102102.72;5003981;28;21535;-82
2023/08/20 04:08:23;;;;;;;;;;;;;;;14.58;100.00;102107.19;5003108;28;19960;-82
2023/08/20 04:11:08;;;;;;;;;;;;;;;14.60;100.00;102104.44;4990894;28;19928;-82
2023/08/20 04:13:54;;;;;;;;;;;;;;;14.62;100.00;102107.91;5003159;28;19968;-82
2023/08/20 04:16:40;;;;;;;;;;;;;;;14.62;100.00;102110.56;5003378;28;20306;-82
2023/08/20 04:19:26;;;;;;;;;;;;;;;14.61;100.00;102119.50;4989646;28;19998;-82
2023/08/20 04:22:11;;;;;;;;;;;;;;;14.60;100.00;102115.13;5004434;28;19925;-82
2023/08/20 04:24:57;;;;;;;;;;;;;;;14.60;100.00;102117.78;5002936;28;19925;-81
2023/08/20 04:27:42;;;;;;;;;;;;;;;14.58;100.00;102122.28;5001721;28;19985;-82
2023/08/20 04:30:28;;;;;;;;;;;;;;;14.57;100.00;102125.88;5003854;28;20055;-82
2023/08/20 04:33:14;;;;;;;;;;;;;;;14.55;100.00;102123.31;5001670;28;19925;-82
2023/08/20 04:35:59;;;;;;;;;;;;;;;14.56;100.00;102130.38;5005122;28;19925;-82
2023/08/20 04:38:45;;;;;;;;;;;;;;;14.57;100.00;102125.88;5003450;28;20301;-81
2023/08/20 04:41:31;;;;;;;;;;;;;;;14.57;100.00;102128.53;5003439;28;19928;-81
2023/08/20 04:44:16;;;;;;;;;;;;;;;14.57;100.00;102129.44;5004474;28;20012;-81
2023/08/20 04:47:02;;;;;;;;;;;;;;;14.57;100.00;102132.09;4988436;28;19951;-82
2023/08/20 04:49:48;;;;;;;;;;;;;;;14.57;100.00;102134.75;5003956;28;20047;-82
2023/08/20 04:52:36;;;;;;;;;;;;;;;14.58;100.00;102139.16;5002761;28;19921;-81
2023/08/20 04:55:22;;;;;;;;;;;;;;;14.58;100.00;102139.16;5002536;28;20386;-82
2023/08/20 04:58:08;;;;;;;;;;;;;;;14.59;100.00;102140.03;5003024;28;19930;-83
2023/08/20 05:00:53;;;;;;;;;;;;;;;14.60;100.00;102144.44;5003336;28;19922;-82
2023/08/20 05:03:42;;;;;;;;;;;;;;;14.60;100.00;102147.09;5002659;28;19925;-82
2023/08/20 05:06:30;;;;;;;;;;;;;;;14.63;100.00;102146.94;4987679;28;19925;-80
2023/08/20 05:09:16;;;;;;;;;;;;;;;14.65;100.00;102150.41;5002492;28;19928;-82
2023/08/20 05:12:02;;;;;;;;;;;;;;;14.69;100.00;102151.13;5017238;28;20314;-81
2023/08/20 05:17:54;;;;;;;;;;;;;;;14.76;100.00;102153.53;5013781;28;20402;-82
2023/08/20 05:20:40;;;;;;;;;;;;;;;14.82;100.00;102144.38;5016477;28;20358;-82
2023/08/20 05:23:25;;;;;;;;;;;;;;;14.87;100.00;102145.06;4987932;28;19921;-82
2023/08/20 05:26:11;;;;;;;;;;;;;;;14.92;100.00;102144.88;5018033;28;19936;-82
2023/08/20 05:28:59;;;;;;;;;;;;;;;14.97;100.00;102137.53;5020029;28;19946;-82
2023/08/20 05:31:45;;;;;;;;;;;;;;;15.05;100.00;102132.72;5005110;28;19947;-82
2023/08/20 05:34:31;;;;;;;;;;;;;;;15.13;100.00;102131.53;5020727;28;19928;-82
2023/08/20 05:37:16;;;;;;;;;;;;;;;15.20;100.00;102138.34;4992119;28;20636;-82
2023/08/20 05:40:02;;;;;;;;;;;;;;;15.25;100.00;102141.66;5020361;28;19921;-82
2023/08/20 05:42:48;;;;;;;;;;;;;;;15.33;100.00;102141.31;5005057;28;19928;-82
2023/08/20 05:45:34;;;;;;;;;;;;;;;15.42;100.00;102134.72;5007535;28;20766;-83
2023/08/20 05:48:22;;;;;;;;;;;;;;;15.52;100.00;102136.00;5019490;28;19929;-82
2023/08/20 05:51:07;;;;;;;;;;;;;;;15.61;100.00;102140.06;5004310;28;19925;-83
2023/08/20 05:53:53;;;;;;;;;;;;;;;15.70;100.00;102142.28;5019412;28;20714;-82
2023/08/20 05:56:42;;;;;;;;;;;;;;;15.80;100.00;102141.88;5004243;28;20007;-82
2023/08/20 05:59:27;;;;;;;;;;;;;;;15.89;100.00;102138.75;5005874;28;20026;-83
2023/08/20 06:02:15;;;;;;;;;;;;;;;16.00;100.00;102136.47;5019296;28;19929;-82
2023/08/20 06:05:01;;;;;;;;;;;;;;;16.11;100.00;102132.41;5018993;28;20403;-83
2023/08/20 06:07:47;;;;;;;;;;;;;;;16.23;100.00;102136.31;5018993;28;19929;-83
2023/08/20 06:10:32;;;;;;;;;;;;;;;16.33;100.00;102142.06;5020302;28;19979;-83
2023/08/20 06:13:18;;;;;;;;;;;;;;;16.46;100.00;102139.66;5019969;28;19932;-81
2023/08/20 06:16:04;;;;;;;;;;;;;;;16.62;100.00;102127.22;5018456;28;19937;-82
2023/08/20 06:18:49;;;;;;;;;;;;;;;16.89;100.00;102141.94;5018903;28;19986;-82
2023/08/20 06:21:35;;;;;;;;;;;;;;;17.21;100.00;102134.94;5004774;28;19929;-82
2023/08/20 06:24:23;;;;;;;;;;;;;;;17.45;100.00;102139.03;5019867;28;20307;-82
2023/08/20 06:27:12;;;;;;;;;;;;;;;17.65;100.00;102140.63;5004325;28;19921;-81
2023/08/20 06:29:57;;;;;;;;;;;;;;;17.80;100.00;102141.59;5018702;28;19929;-82
2023/08/20 06:32:44;;;;;;;;;;;;;;;17.97;100.00;102146.00;5019526;28;19947;-81
2023/08/20 06:35:29;;;;;;;;;;;;;;;18.14;100.00;102149.59;5008298;28;19967;-82
2023/08/20 06:38:15;;;;;;;;;;;;;;;18.33;100.00;102144.03;5003580;28;19921;-82
2023/08/20 06:41:00;;;;;;;;;;;;;;;18.57;100.00;102144.41;5018306;28;21446;-82
2023/08/20 06:43:46;;;;;;;;;;;;;;;18.79;100.00;102144.97;5019398;28;20036;-82
2023/08/20 06:46:32;;;;;;;;;;;;;;;18.99;100.00;102149.97;5003719;28;19929;-83
2023/08/20 06:49:17;;;;;;;;;;;;;;;19.16;100.00;102147.25;5004769;28;19928;-82
2023/08/20 06:52:03;;;;;;;;;;;;;;;19.32;100.00;102155.19;5004330;28;20466;-81
2023/08/20 06:54:49;;;;;;;;;;;;;;;19.44;100.00;102150.91;5019366;28;20287;-83
2023/08/20 06:57:34;;;;;;;;;;;;;;;19.56;100.00;102157.31;5003426;28;21499;-82
2023/08/20 07:00:20;;;;;;;;;;;;;;;19.71;100.00;102168.94;5018007;28;20000;-82
2023/08/20 07:03:06;;;;;;;;;;;;;;;19.91;100.00;102165.81;5019482;28;19925;-82
2023/08/20 07:05:51;;;;;;;;;;;;;;;20.07;100.00;102171.09;5018108;28;19933;-82
2023/08/20 07:08:39;;;;;;;;;;;;;;;20.25;100.00;102172.69;5013467;28;19929;-83
2023/08/20 07:11:27;;;;;;;;;;;;;;;20.38;100.00;102173.59;5003495;28;20621;-82
2023/08/20 07:14:12;;;;;;;;;;;;;;;20.49;100.00;102171.03;5017405;28;20601;-83
2023/08/20 07:16:59;;;;;;;;;;;;;;;20.61;100.00;102157.75;5017733;28;20494;-83
2023/08/20 07:19:45;;;;;;;;;;;;;;;20.76;100.00;102164.75;5018436;28;19933;-82
2023/08/20 07:22:31;;;;;;;;;;;;;;;20.86;100.00;102161.50;5018852;28;19927;-82
2023/08/20 07:25:16;;;;;;;;;;;;;;;20.95;100.00;102166.22;5019156;28;19932;-84
2023/08/20 07:28:02;;;;;;;;;;;;;;;20.97;100.00;102158.91;5017558;28;20527;-82
2023/08/20 07:30:48;;;;;;;;;;;;;;;20.93;100.00;102162.78;5017446;28;20307;-83
2023/08/20 07:33:33;;;;;;;;;;;;;;;20.97;100.00;102164.28;5003884;28;19925;-82
2023/08/20 07:36:19;;;;;;;;;;;;;;;21.04;100.00;102156.66;5017605;28;20292;-83
2023/08/20 07:39:05;;;;;;;;;;;;;;;21.13;100.00;102165.94;4987296;28;20707;-83
2023/08/20 07:41:50;;;;;;;;;;;;;;;21.20;100.00;102167.22;5017795;28;20378;-82
2023/08/20 07:44:42;;;;;;;;;;;;;;;21.26;100.00;102174.00;5002921;28;19976;-82
2023/08/20 07:47:28;;;;;;;;;;;;;;;21.32;100.00;102168.19;5018683;28;19932;-82
2023/08/20 07:50:14;;;;;;;;;;;;;;;21.39;100.00;102169.47;5002254;28;19979;-82
2023/08/20 07:53:00;;;;;;;;;;;;;;;21.41;100.00;102169.38;5017004;28;20280;-81
2023/08/20 07:55:45;;;;;;;;;;;;;;;21.41;100.00;102172.06;5017773;28;19987;-80
2023/08/20 07:58:31;;;;;;;;;;;;;;;21.51;100.00;102177.66;5016900;28;19935;-81
2023/08/20 08:01:17;;;;;;;;;;;;;;;21.62;100.00;102180.41;4988904;28;20736;-81
2023/08/20 08:04:02;;;;;;;;;;;;;;;21.72;100.00;102186.03;5017157;28;20537;-83
2023/08/20 08:06:48;;;;;;;;;;;;;;;21.81;100.00;102193.47;5017081;28;20021;-84
2023/08/20 08:09:34;;;;;;;;;;;;;;;21.86;100.00;102194.97;5003736;28;19987;-84
2023/08/20 08:12:19;;;;;;;;;;;;;;;21.92;100.00;102198.09;5002361;28;20340;-85
2023/08/20 08:15:08;;;;;;;;;;;;;;;22.02;100.00;102202.78;5016523;28;19947;-83
2023/08/20 08:17:53;;;;;;;;;;;;;;;22.26;100.00;102210.91;5002444;28;20364;-85
2023/08/20 08:20:42;;;;;;;;;;;;;;;22.50;100.00;102212.78;5002673;28;19933;-83
2023/08/20 08:23:30;;;;;;;;;;;;;;;22.57;100.00;102221.28;5017250;28;20195;-84
2023/08/20 08:26:16;;;;;;;;;;;;;;;22.43;100.00;102214.22;5017706;28;20426;-82
2023/08/20 08:29:02;;;;;;;;;;;;;;;22.32;100.00;102218.56;5002712;28;20384;-84
2023/08/20 08:31:48;;;;;;;;;;;;;;;22.32;100.00;102223.94;5016591;28;20505;-85
2023/08/20 08:34:33;;;;;;;;;;;;;;;22.55;100.00;102226.78;4989058;28;20443;-85
2023/08/20 08:37:19;;;;;;;;;;;;;;;22.76;100.00;102229.72;5018017;28;20960;-86
2023/08/20 08:40:06;;;;;;;;;;;;;;;22.87;100.00;102234.28;5002231;28;19991;-83
2023/08/20 08:42:52;;;;;;;;;;;;;;;22.77;100.00;102231.44;5017887;28;19936;-84
2023/08/20 08:45:37;;;;;;;;;;;;;;;22.72;100.00;102235.47;5012867;28;20373;-86
2023/08/20 08:48:24;;;;;;;;;;;;;;;22.86;100.00;102232.56;4988595;28;20300;-83
2023/08/20 08:51:11;;;;;;;;;;;;;;;22.96;100.00;102229.16;5017881;28;19928;-81
2023/08/20 08:53:59;;;;;;;;;;;;;;;23.07;100.00;102234.59;5002233;28;20006;-85
2023/08/20 08:56:45;;;;;;;;;;;;;;;23.19;100.00;102236.34;5002482;28;19920;-84
2023/08/20 08:59:31;;;;;;;;;;;;;;;23.28;100.00;102233.91;5000682;28;20277;-87
2023/08/20 09:02:17;;;;;;;;;;;;;;;23.36;100.00;102233.34;5005269;28;19986;-85
2023/08/20 09:05:02;;;;;;;;;;;;;;;23.44;100.00;102233.59;5020287;28;19939;-84
2023/08/20 09:07:49;;;;;;;;;;;;;;;23.55;100.00;102240.84;5004845;28;19921;-87
2023/08/20 09:10:34;;;;;;;;;;;;;;;23.74;100.00;102235.69;5002637;28;19920;-86
2023/08/20 09:13:24;;;;;;;;;;;;;;;23.86;100.00;102235.72;5007127;28;20384;-88
2023/08/20 09:16:10;;;;;;;;;;;;;;;23.78;100.00;102243.56;5002999;28;19979;-87
2023/08/20 09:18:58;;;;;;;;;;;;;;;23.64;100.00;102240.09;5007022;28;19935;-86
2023/08/20 09:21:46;;;;;;;;;;;;;;;23.42;100.00;102232.88;5005413;28;19925;-87
2023/08/20 09:24:39;;;;;;;;;;;;;;;23.34;100.00;102244.25;5005782;28;19925;-85
2023/08/20 09:27:24;;;;;;;;;;;;;;;23.26;100.00;102246.69;5005465;28;19921;-86
2023/08/20 09:30:17;;;;;;;;;;;;;;;23.09;100.00;102246.13;5020582;28;20063;-85
2023/08/20 09:33:14;;;;;;;;;;;;;;;23.05;100.00;102252.75;5005646;28;19999;-82
2023/08/20 09:36:07;;;;;;;;;;;;;;;22.99;100.00;102255.94;5001853;28;19957;-84
2023/08/20 09:38:52;;;;;;;;;;;;;;;22.97;100.00;102244.38;4990671;28;19932;-83
2023/08/20 09:41:38;;;;;;;;;;;;;;;23.04;100.00;102249.19;4996687;28;19921;-82
2023/08/20 09:44:26;;;;;;;;;;;;;;;22.96;100.00;102250.75;5004193;28;20257;-82
2023/08/20 09:47:13;;;;;;;;;;;;;;;22.80;100.00;102251.94;5006003;28;19929;-82
2023/08/20 09:49:59;;;;;;;;;;;;;;;22.83;100.00;102257.13;5005398;28;20011;-83
2023/08/20 09:52:48;;;;;;;;;;;;;;;23.08;100.00;102254.38;5005073;28;20069;-84
2023/08/20 09:55:34;;;;;;;;;;;;;;;23.30;100.00;102253.56;5005937;28;19921;-84
2023/08/20 09:58:25;;;;;;;;;;;;;;;23.57;100.00;102257.78;5003594;28;19931;-83
2023/08/20 10:01:10;;;;;;;;;;;;;;;23.88;100.00;102256.19;4992216;28;20055;-85
2023/08/20 10:03:56;;;;;;;;;;;;;;;24.17;100.00;102267.53;5005945;28;19925;-83
2023/08/20 10:06:42;;;;;;;;;;;;;;;24.22;98.81;102271.59;5005536;28;19925;-86
2023/08/20 10:09:33;;;;;;;;;;;;;;;23.99;94.99;102266.19;5019165;28;19932;-85
2023/08/20 10:12:19;;;;;;;;;;;;;;;23.66;95.98;102264.31;5007541;28;21696;-85
2023/08/20 10:15:07;;;;;;;;;;;;;;;23.44;94.58;102268.72;5009167;28;19972;-85
2023/08/20 10:17:52;;;;;;;;;;;;;;;23.35;96.31;102272.16;5019016;28;19993;-86
2023/08/20 10:20:39;;;;;;;;;;;;;;;23.37;97.49;102262.91;4995035;28;19967;-87
2023/08/20 10:23:25;;;;;;;;;;;;;;;23.43;94.90;102264.31;5009377;28;19955;-82
2023/08/20 10:26:10;;;;;;;;;;;;;;;23.36;94.84;102266.59;5008907;28;19928;-85
2023/08/20 10:29:15;;;;;;;;;;;;;;;23.36;96.50;102263.06;5008921;28;19928;-84
2023/08/20 10:32:01;;;;;;;;;;;;;;;23.47;99.07;102260.38;5003821;28;20544;-87
2023/08/20 10:34:50;;;;;;;;;;;;;;;23.56;97.45;102256.94;5019362;28;19940;-87
2023/08/20 10:37:42;;;;;;;;;;;;;;;23.68;99.09;102263.22;4990438;28;20472;-81
2023/08/20 10:40:57;;;;;;;;;;;;;;;23.65;93.29;102258.06;5022624;28;20016;-83
2023/08/20 10:43:47;;;;;;;;;;;;;;;23.76;96.42;102264.44;5002937;28;19932;-86
2023/08/20 10:46:36;;;;;;;;;;;;;;;23.77;95.15;102260.75;5018214;28;20387;-84
2023/08/20 10:49:22;;;;;;;;;;;;;;;23.66;93.57;102257.09;5017545;28;19929;-84
2023/08/20 10:52:07;;;;;;;;;;;;;;;23.55;93.32;102257.06;5017795;28;19925;-82
2023/08/20 10:54:53;;;;;;;;;;;;;;;23.51;94.72;102271.78;5016639;28;20554;-82
2023/08/20 10:57:39;;;;;;;;;;;;;;;23.49;97.78;102265.66;5007443;28;19921;-84
2023/08/20 11:00:24;;;;;;;;;;;;;;;23.46;91.48;102264.91;5007972;28;19920;-82
2023/08/20 11:03:12;;;;;;;;;;;;;;;23.37;92.02;102257.53;5008085;28;20066;-85
2023/08/20 11:06:01;;;;;;;;;;;;;;;23.20;93.79;102261.50;5013922;28;19975;-84
2023/08/20 11:08:47;;;;;;;;;;;;;;;23.11;96.30;102256.81;5004664;28;19924;-87
2023/08/20 11:11:35;;;;;;;;;;;;;;;23.17;93.51;102264.44;5004063;28;20295;-87
2023/08/20 11:14:21;;;;;;;;;;;;;;;23.26;96.87;102265.59;4989730;28;19924;-84
2023/08/20 11:17:07;;;;;;;;;;;;;;;23.22;93.58;102261.38;5004526;28;19982;-87
2023/08/20 11:19:54;;;;;;;;;;;;;;;23.10;94.02;102260.50;5004513;28;19929;-87
2023/08/20 11:22:42;;;;;;;;;;;;;;;23.02;94.97;102263.78;4986430;28;20348;-86
2023/08/20 11:25:31;;;;;;;;;;;;;;;23.00;96.30;102268.44;5004109;28;19928;-86
2023/08/20 11:28:16;;;;;;;;;;;;;;;23.11;97.51;102264.94;5004399;28;19929;-85
2023/08/20 11:31:02;;;;;;;;;;;;;;;23.31;98.36;102266.13;5003555;28;20031;-84
2023/08/20 11:33:49;;;;;;;;;;;;;;;23.45;92.90;102259.63;5006146;28;20016;-85
2023/08/20 11:36:35;;;;;;;;;;;;;;;23.49;87.80;102273.75;5004112;28;19932;-86
2023/08/20 11:39:21;;;;;;;;;;;;;;;23.34;88.31;102273.97;5004706;28;19929;-84
2023/08/20 11:42:12;;;;;;;;;;;;;;;23.21;89.73;102274.06;5003340;28;20332;-81
2023/08/20 11:44:57;;;;;;;;;;;;;;;23.23;91.17;102282.00;5004410;28;19921;-85
2023/08/20 11:47:43;;;;;;;;;;;;;;;23.18;92.09;102279.69;5005139;28;20347;-87
2023/08/20 11:50:31;;;;;;;;;;;;;;;23.15;90.64;102272.66;5003484;28;19967;-83
2023/08/20 11:53:20;;;;;;;;;;;;;;;23.08;89.33;102263.31;4998736;28;19980;-82
2023/08/20 11:56:06;;;;;;;;;;;;;;;22.97;89.93;102277.66;5002585;28;19964;-86
2023/08/20 11:58:52;;;;;;;;;;;;;;;22.96;91.66;102273.22;4988864;28;19925;-85
2023/08/20 12:01:37;;;;;;;;;;;;;;;22.94;90.39;102277.91;5004493;28;20372;-85
2023/08/20 12:04:23;;;;;;;;;;;;;;;22.82;92.63;102262.63;5003382;28;20011;-83
2023/08/20 12:07:13;;;;;;;;;;;;;;;22.89;95.60;102261.19;5002910;28;19931;-85
2023/08/20 12:09:58;;;;;;;;;;;;;;;23.05;97.91;102245.50;5004886;28;19936;-84
2023/08/20 12:12:46;;;;;;;;;;;;;;;23.27;96.38;102259.19;5003095;28;19982;-85
2023/08/20 12:15:32;;;;;;;;;;;;;;;23.36;93.12;102266.59;4989153;28;19933;-86
2023/08/20 12:18:18;;;;;;;;;;;;;;;23.28;91.34;102266.31;5002452;28;19924;-86
2023/08/20 12:21:03;;;;;;;;;;;;;;;23.11;90.97;102255.00;4989293;28;19922;-86
2023/08/20 12:23:49;;;;;;;;;;;;;;;23.00;93.98;102257.66;5003817;28;20383;-87
2023/08/20 12:26:36;;;;;;;;;;;;;;;23.08;95.84;102263.31;5003004;28;19925;-87
2023/08/20 12:29:21;;;;;;;;;;;;;;;23.16;92.42;102257.34;4988207;28;20528;-85
2023/08/20 12:32:07;;;;;;;;;;;;;;;23.23;90.50;102253.19;5003991;28;20470;-85
2023/08/20 12:34:53;;;;;;;;;;;;;;;23.36;92.12;102263.91;5003326;28;20356;-85
2023/08/20 12:37:42;;;;;;;;;;;;;;;23.41;92.51;102260.84;5016849;28;19930;-84
2023/08/20 12:40:28;;;;;;;;;;;;;;;23.48;89.90;102261.22;5005744;28;19921;-85
2023/08/20 12:43:14;;;;;;;;;;;;;;;23.56;89.23;102266.88;5007358;28;20514;-86
2023/08/20 12:45:59;;;;;;;;;;;;;;;23.65;91.37;102258.06;4992694;28;19925;-85
2023/08/20 12:48:45;;;;;;;;;;;;;;;23.66;87.37;102264.31;5007606;28;19925;-84
2023/08/20 12:51:31;;;;;;;;;;;;;;;23.62;91.62;102261.00;5008092;28;19923;-88
2023/08/20 12:54:17;;;;;;;;;;;;;;;23.57;92.67;102265.91;5006948;28;20218;-87
2023/08/20 12:57:02;;;;;;;;;;;;;;;23.57;93.02;102271.31;5006300;28;20024;-87
2023/08/20 12:59:48;;;;;;;;;;;;;;;23.56;94.09;102267.75;5007050;28;20398;-87
2023/08/20 13:02:34;;;;;;;;;;;;;;;23.74;91.46;102280.78;5006940;28;20011;-86
2023/08/20 13:05:24;;;;;;;;;;;;;;;23.84;91.84;102279.09;4994752;28;20341;-84
2023/08/20 13:08:13;;;;;;;;;;;;;;;23.92;90.63;102273.06;5020640;28;20141;-85
2023/08/20 13:10:58;;;;;;;;;;;;;;;24.04;89.20;102273.03;5005680;28;19928;-81
2023/08/20 13:13:44;;;;;;;;;;;;;;;24.07;87.31;102278.25;5021725;28;20036;-83
2023/08/20 13:16:30;;;;;;;;;;;;;;;24.12;88.48;102273.31;5006461;28;19929;-86
2023/08/20 13:19:16;;;;;;;;;;;;;;;24.19;88.77;102276.38;5019371;28;19929;-86
2023/08/20 13:22:02;;;;;;;;;;;;;;;24.12;88.39;102270.59;4991499;28;20048;-87
2023/08/20 13:24:48;;;;;;;;;;;;;;;24.04;84.39;102262.22;5006570;28;19921;-85
2023/08/20 13:27:33;;;;;;;;;;;;;;;23.96;87.18;102263.69;5005256;28;19925;-87
2023/08/20 13:30:19;;;;;;;;;;;;;;;23.91;87.41;102257.81;5020761;28;20383;-88
2023/08/20 13:33:05;;;;;;;;;;;;;;;23.87;84.37;102259.06;5006131;28;20413;-84
2023/08/20 13:35:52;;;;;;;;;;;;;;;23.99;89.01;102266.19;5020692;28;19921;-85
2023/08/20 13:38:37;;;;;;;;;;;;;;;24.09;88.01;102273.56;5006493;28;19929;-83
2023/08/20 13:41:23;;;;;;;;;;;;;;;23.91;84.54;102270.47;5019582;28;20067;-87
2023/08/20 13:44:09;;;;;;;;;;;;;;;23.81;86.70;102264.94;5020183;28;19967;-86
2023/08/20 13:46:54;;;;;;;;;;;;;;;23.81;87.82;102262.25;5019515;28;20402;-86
2023/08/20 13:49:40;;;;;;;;;;;;;;;23.84;89.58;102261.97;5005976;28;19940;-87
2023/08/20 13:52:25;;;;;;;;;;;;;;;23.99;88.10;102271.59;5019162;28;20243;-84
2023/08/20 13:55:12;;;;;;;;;;;;;;;24.11;89.96;102268.88;5019857;28;19951;-86
2023/08/20 13:58:00;;;;;;;;;;;;;;;24.17;88.33;102268.38;4991573;28;19931;-86
2023/08/20 14:00:46;;;;;;;;;;;;;;;24.12;85.92;102276.00;5006564;28;19924;-86
2023/08/20 14:03:31;;;;;;;;;;;;;;;24.13;82.32;102277.75;5005306;28;20020;-87
2023/08/20 14:06:17;;;;;;;;;;;;;;;24.17;86.13;102281.06;5015551;28;19940;-87
2023/08/20 14:09:04;;;;;;;;;;;;;;;23.99;84.90;102274.28;5006610;28;19932;-86
2023/08/20 14:11:50;;;;;;;;;;;;;;;23.81;86.61;102278.47;5017680;28;19929;-85